Time;durP1;ratioP1;P1;durP2;ratioP2;P2;SDS_P1;SDS_P2;PMS_P1;PMS_P2;Temp;Humidity;BMP_temperature;BMP_pressure;BME280_temperature;BME280_humidity;BME280_pressure;Samples;Min_cycle;Max_cycle;Signal;HPM_P1;HPM_P2
2023/12/30 00:02:13;;;;;;;3.00;0.90;;;16.10;78.40;;;;;;4187435;28;20055;-36
2023/12/30 00:04:55;;;;;;;6.03;1.00;;;16.10;77.80;;;;;;4181984;28;20122;-37
2023/12/30 00:07:36;;;;;;;2.47;1.15;;;16.10;77.80;;;;;;4181385;28;20059;-37
2023/12/30 00:10:17;;;;;;;3.90;1.02;;;16.00;77.80;;;;;;4188387;28;20525;-36
2023/12/30 00:12:58;;;;;;;4.00;0.80;;;16.00;78.30;;;;;;4187342;28;20055;-37
2023/12/30 00:15:43;;;;;;;3.85;1.05;;;16.00;78.40;;;;;;4159201;28;20125;-36
2023/12/30 00:18:24;;;;;;;8.18;1.20;;;16.00;78.60;;;;;;4180702;28;20153;-36
2023/12/30 00:21:06;;;;;;;2.60;1.05;;;16.00;78.60;;;;;;4187117;28;20051;-36
2023/12/30 00:23:47;;;;;;;6.47;1.42;;;16.00;78.70;;;;;;4186315;28;20067;-36
2023/12/30 00:26:29;;;;;;;7.05;1.45;;;16.20;78.60;;;;;;4187157;28;20055;-36
2023/12/30 00:29:23;;;;;;;6.07;1.85;;;16.20;78.90;;;;;;4170096;28;20106;-36
2023/12/30 00:32:06;;;;;;;4.15;1.30;;;16.30;77.70;;;;;;4187160;28;20059;-36
2023/12/30 00:34:47;;;;;;;3.72;1.27;;;16.40;77.60;;;;;;4186242;28;20079;-36
2023/12/30 00:37:29;;;;;;;3.65;1.00;;;16.40;77.50;;;;;;4175969;28;20056;-36
2023/12/30 00:40:11;;;;;;;5.38;1.10;;;16.40;77.40;;;;;;4174455;28;20146;-36
2023/12/30 00:42:53;;;;;;;6.20;1.20;;;16.40;78.20;;;;;;4169625;28;20051;-37
2023/12/30 00:45:35;;;;;;;2.25;1.20;;;16.40;76.90;;;;;;4169710;28;20126;-37
2023/12/30 00:48:16;;;;;;;7.25;1.30;;;16.40;76.50;;;;;;4170316;28;20407;-36
2023/12/30 00:50:59;;;;;;;6.20;1.50;;;16.30;76.80;;;;;;4174036;28;20055;-37
2023/12/30 00:53:41;;;;;;;7.13;1.55;;;16.30;76.80;;;;;;4185503;28;20050;-36
2023/12/30 00:56:22;;;;;;;6.97;1.58;;;16.30;76.80;;;;;;4174285;28;20060;-37
2023/12/30 00:59:04;;;;;;;3.42;1.17;;;16.30;77.80;;;;;;4157539;28;20385;-36
2023/12/30 01:01:45;;;;;;;5.97;1.13;;;16.20;77.00;;;;;;4170396;28;20079;-36
2023/12/30 01:04:26;;;;;;;6.13;0.85;;;16.20;76.90;;;;;;4181481;28;20077;-37
2023/12/30 01:07:07;;;;;;;7.72;1.48;;;16.20;77.30;;;;;;4197554;28;20517;-36
2023/12/30 01:09:50;;;;;;;3.42;1.38;;;16.30;77.80;;;;;;4169198;28;20130;-37
2023/12/30 01:12:31;;;;;;;7.90;1.77;;;16.30;77.80;;;;;;4177675;28;20060;-36
2023/12/30 01:15:11;;;;;;;6.10;1.52;;;16.40;77.20;;;;;;4165284;28;20056;-37
2023/12/30 01:17:52;;;;;;;5.25;1.60;;;16.40;77.20;;;;;;4170179;28;20048;-37
2023/12/30 01:20:33;;;;;;;7.63;1.20;;;16.50;77.10;;;;;;4169378;28;20064;-37
2023/12/30 01:23:15;;;;;;;4.97;1.33;;;16.50;76.70;;;;;;4170340;28;20051;-36
2023/12/30 01:25:57;;;;;;;4.80;1.15;;;16.50;76.50;;;;;;4170470;28;20553;-37
2023/12/30 01:28:38;;;;;;;3.15;0.98;;;16.50;76.50;;;;;;4171532;28;20060;-37
2023/12/30 01:31:19;;;;;;;10.70;1.90;;;16.40;76.80;;;;;;4170095;28;20610;-36
2023/12/30 01:34:00;;;;;;;6.40;1.45;;;16.40;76.80;;;;;;4183979;28;20785;-36
2023/12/30 01:36:41;;;;;;;5.22;1.10;;;16.40;77.70;;;;;;4177465;28;20071;-36
2023/12/30 01:39:21;;;;;;;6.53;1.10;;;16.40;77.10;;;;;;4162859;28;20110;-36
2023/12/30 01:42:04;;;;;;;4.70;1.25;;;16.40;77.00;;;;;;4186600;28;20403;-36
2023/12/30 01:44:45;;;;;;;7.50;1.30;;;16.30;77.10;;;;;;4183235;28;20083;-36
2023/12/30 01:47:27;;;;;;;8.27;1.27;;;16.40;77.40;;;;;;4164236;28;20053;-36
2023/12/30 01:50:08;;;;;;;;;;;16.40;77.50;;;;;;4154387;28;20195;-36
2023/12/30 01:52:49;;;;;;;5.78;1.50;;;16.50;76.90;;;;;;4172148;28;19967;-36
2023/12/30 01:55:31;;;;;;;3.53;1.20;;;16.50;77.30;;;;;;4170034;28;20072;-37
2023/12/30 01:58:14;;;;;;;7.80;1.30;;;16.60;77.10;;;;;;4182145;28;20060;-36
2023/12/30 02:00:56;;;;;;;5.78;1.45;;;16.60;76.80;;;;;;4172215;28;20048;-36
2023/12/30 02:03:37;;;;;;;6.55;1.23;;;16.70;76.30;;;;;;4178158;28;20094;-36
2023/12/30 02:06:19;;;;;;;6.10;1.63;;;16.70;76.10;;;;;;4188171;28;20064;-36
2023/12/30 02:09:02;;;;;;;4.30;1.27;;;16.70;75.80;;;;;;4186300;28;20056;-36
2023/12/30 02:11:44;;;;;;;2.53;1.20;;;16.70;75.70;;;;;;4186659;28;20335;-37
2023/12/30 02:14:30;;;;;;;4.50;1.10;;;16.60;75.70;;;;;;4188262;28;20055;-36
2023/12/30 02:17:11;;;;;;;4.93;1.05;;;16.60;75.70;;;;;;4171792;28;20060;-37
2023/12/30 02:19:52;;;;;;;5.55;1.02;;;16.50;76.20;;;;;;4189168;28;20047;-38
2023/12/30 02:22:36;;;;;;;5.85;1.58;;;16.60;76.60;;;;;;4187557;28;20051;-37
2023/12/30 02:25:18;;;;;;;6.70;1.30;;;16.70;76.50;;;;;;4187880;28;20072;-37
2023/12/30 02:27:59;;;;;;;3.92;1.13;;;16.70;76.30;;;;;;4188927;28;20059;-38
2023/12/30 02:30:40;;;;;;;5.22;1.20;;;16.70;77.00;;;;;;4171980;28;20098;-37
2023/12/30 02:33:21;;;;;;;6.72;1.25;;;16.70;76.10;;;;;;4163907;28;20097;-37
2023/12/30 02:36:03;;;;;;;7.70;1.42;;;16.70;76.00;;;;;;4163427;28;20400;-37
2023/12/30 02:38:44;;;;;;;7.30;1.35;;;16.80;75.80;;;;;;4197992;28;20083;-37
2023/12/30 02:41:27;;;;;;;5.03;1.50;;;16.80;75.70;;;;;;4199435;28;20064;-37
2023/12/30 02:44:08;;;;;;;4.22;1.02;;;16.80;75.60;;;;;;4179479;28;20056;-36
2023/12/30 02:46:49;;;;;;;5.15;1.15;;;16.80;75.60;;;;;;4171619;28;20074;-36
2023/12/30 02:49:33;;;;;;;8.75;1.08;;;16.80;75.50;;;;;;4162905;28;20106;-36
2023/12/30 02:52:13;;;;;;;4.30;1.10;;;16.80;75.20;;;;;;4176400;28;20060;-37
2023/12/30 02:54:54;;;;;;;4.00;1.27;;;16.80;75.40;;;;;;4188340;28;20048;-36
2023/12/30 02:57:37;;;;;;;4.97;1.52;;;16.80;75.50;;;;;;4171231;28;20052;-37
2023/12/30 03:00:27;;;;;;;7.43;1.48;;;16.80;75.40;;;;;;4172502;28;20059;-36
2023/12/30 03:03:07;;;;;;;5.50;1.02;;;16.80;75.50;;;;;;4172874;28;20125;-37
2023/12/30 03:05:48;;;;;;;4.75;1.00;;;16.80;75.40;;;;;;4172585;28;20052;-36
2023/12/30 03:08:29;;;;;;;3.70;1.03;;;16.80;75.70;;;;;;4187788;28;20163;-37
2023/12/30 03:11:10;;;;;;;7.28;1.55;;;16.70;75.40;;;;;;4177940;28;20056;-37
2023/12/30 03:13:53;;;;;;;6.38;1.23;;;16.70;75.60;;;;;;4174184;28;20056;-37
2023/12/30 03:16:35;;;;;;;4.55;1.50;;;16.60;75.30;;;;;;4173081;28;20130;-36
2023/12/30 03:19:16;;;;;;;4.10;1.25;;;16.60;75.70;;;;;;4172080;28;20376;-36
2023/12/30 03:21:57;;;;;;;3.15;1.38;;;16.60;76.10;;;;;;4172424;28;20056;-36
2023/12/30 03:24:39;;;;;;;7.35;1.30;;;16.60;76.10;;;;;;4186138;28;20097;-37
2023/12/30 03:27:19;;;;;;;8.10;1.50;;;16.70;76.10;;;;;;4186397;28;20137;-36
2023/12/30 03:30:02;;;;;;;6.40;1.25;;;16.70;76.00;;;;;;4175271;28;20519;-37
2023/12/30 03:32:44;;;;;;;4.28;1.52;;;16.70;75.90;;;;;;4187334;28;20503;-37
2023/12/30 03:35:25;;;;;;;5.45;1.40;;;16.70;76.20;;;;;;4188382;28;20059;-36
2023/12/30 03:38:06;;;;;;;6.43;1.33;;;16.80;75.80;;;;;;4172409;28;20385;-37
2023/12/30 03:40:47;;;;;;;7.50;1.30;;;16.80;75.50;;;;;;4184486;28;20498;-36
2023/12/30 03:43:28;;;;;;;4.50;1.10;;;16.90;75.50;;;;;;4185657;28;20055;-36
2023/12/30 03:46:10;;;;;;;6.32;1.42;;;16.90;75.30;;;;;;4187713;28;20506;-36
2023/12/30 03:48:51;;;;;;;3.40;0.98;;;16.80;75.20;;;;;;4186372;28;20407;-37
2023/12/30 03:51:32;;;;;;;4.60;1.30;;;16.80;75.60;;;;;;4177059;28;20052;-36
2023/12/30 03:54:13;;;;;;;8.68;1.40;;;16.90;75.50;;;;;;4175850;28;20556;-36
2023/12/30 03:56:55;;;;;;;10.93;1.55;;;16.90;75.30;;;;;;4171188;28;20056;-37
2023/12/30 03:59:37;;;;;;;4.40;1.10;;;16.90;74.90;;;;;;4177371;28;20651;-36
2023/12/30 04:02:21;;;;;;;2.70;1.05;;;16.90;74.70;;;;;;4170147;28;20052;-37
2023/12/30 04:05:02;;;;;;;7.65;1.77;;;16.80;74.90;;;;;;4175267;28;20451;-37
2023/12/30 04:07:43;;;;;;;8.38;1.20;;;16.80;74.90;;;;;;4186516;28;20055;-36
2023/12/30 04:10:24;;;;;;;7.87;2.70;;;16.80;75.80;;;;;;4170495;28;20051;-37
2023/12/30 04:13:05;;;;;;;7.25;1.48;;;16.90;75.00;;;;;;4170339;28;20972;-37
2023/12/30 04:15:46;;;;;;;8.10;1.80;;;16.90;74.70;;;;;;4170016;28;20056;-36
2023/12/30 04:18:28;;;;;;;6.20;1.50;;;16.90;74.80;;;;;;4170112;28;20060;-36
2023/12/30 04:21:09;;;;;;;4.43;1.13;;;16.90;74.90;;;;;;4169577;28;20218;-36
2023/12/30 04:23:50;;;;;;;5.80;1.37;;;16.90;75.00;;;;;;4180573;28;20059;-37
2023/12/30 04:26:30;;;;;;;3.73;1.13;;;17.00;74.70;;;;;;4180137;28;20988;-37
2023/12/30 04:29:12;;;;;;;8.70;1.85;;;17.00;74.80;;;;;;4187537;28;20186;-36
2023/12/30 04:31:53;;;;;;;;;;;17.00;74.60;;;;;;4185925;28;20051;-36
2023/12/30 04:34:35;;;;;;;13.35;2.50;;;17.00;74.50;;;;;;4186086;28;19982;-37
2023/12/30 04:37:17;;;;;;;6.72;1.33;;;16.90;75.00;;;;;;4185043;28;20067;-37
2023/12/30 04:39:58;;;;;;;4.63;1.33;;;16.90;74.80;;;;;;4186095;28;20107;-37
2023/12/30 04:42:39;;;;;;;5.63;1.10;;;16.90;74.90;;;;;;4162711;28;20063;-36
2023/12/30 04:45:20;;;;;;;7.97;1.67;;;16.90;74.90;;;;;;4184445;28;20537;-37
2023/12/30 04:48:00;;;;;;;9.10;1.43;;;16.80;74.90;;;;;;4172896;28;20056;-37
2023/12/30 04:50:43;;;;;;;5.97;2.53;;;16.90;74.90;;;;;;4185193;28;20110;-36
2023/12/30 04:53:25;;;;;;;5.07;1.20;;;16.80;75.50;;;;;;4187395;28;20067;-37
2023/12/30 04:56:08;;;;;;;7.40;1.83;;;16.80;74.70;;;;;;4186963;28;20479;-36
2023/12/30 04:58:49;;;;;;;7.30;1.60;;;16.80;74.80;;;;;;4182939;28;20063;-36
2023/12/30 05:01:31;;;;;;;8.20;1.65;;;16.80;74.80;;;;;;4186186;28;20063;-36
2023/12/30 05:04:12;;;;;;;7.07;1.50;;;16.80;74.90;;;;;;4187289;28;20060;-36
2023/12/30 05:06:54;;;;;;;8.07;1.85;;;16.80;74.90;;;;;;4187163;28;20418;-36
2023/12/30 05:09:36;;;;;;;6.85;1.58;;;16.70;74.60;;;;;;4186982;28;20486;-37
2023/12/30 05:12:16;;;;;;;5.72;1.73;;;16.70;75.00;;;;;;4186446;28;20047;-37
2023/12/30 05:14:57;;;;;;;8.88;1.73;;;16.70;75.20;;;;;;4170535;28;20056;-37
2023/12/30 05:17:39;;;;;;;7.80;1.70;;;16.80;75.10;;;;;;4155192;28;20048;-37
2023/12/30 05:20:20;;;;;;;8.60;2.00;;;16.90;75.00;;;;;;4169682;28;20060;-36
2023/12/30 05:23:03;;;;;;;8.93;1.80;;;16.90;74.60;;;;;;4172741;28;20052;-37
2023/12/30 05:25:45;;;;;;;6.57;1.58;;;16.90;74.40;;;;;;4186764;28;20506;-37
2023/12/30 05:28:26;;;;;;;5.55;1.48;;;16.80;74.30;;;;;;4185994;28;20064;-36
2023/12/30 05:31:06;;;;;;;10.43;2.17;;;16.80;74.50;;;;;;4186854;28;20205;-36
2023/12/30 05:33:47;;;;;;;11.10;1.80;;;16.80;74.90;;;;;;4173205;28;20055;-36
2023/12/30 05:36:28;;;;;;;6.25;1.52;;;16.70;75.00;;;;;;4156526;28;20048;-36
2023/12/30 05:39:12;;;;;;;4.03;1.33;;;16.70;75.20;;;;;;4163893;28;20076;-36
2023/12/30 05:41:54;;;;;;;7.22;1.70;;;16.70;75.30;;;;;;4173225;28;20106;-36
2023/12/30 05:44:34;;;;;;;7.85;1.50;;;16.60;75.60;;;;;;4187743;28;20062;-37
2023/12/30 05:47:15;;;;;;;8.98;1.48;;;16.60;75.50;;;;;;4189161;28;20183;-37
2023/12/30 05:49:57;;;;;;;6.53;1.20;;;16.70;75.70;;;;;;4189248;28;20059;-37
2023/12/30 05:52:38;;;;;;;10.52;1.60;;;16.70;75.50;;;;;;4189658;28;20067;-37
2023/12/30 05:55:20;;;;;;;7.82;1.60;;;16.70;75.40;;;;;;4189406;28;20186;-38
2023/12/30 05:58:01;;;;;;;7.82;2.22;;;16.80;75.10;;;;;;4189319;28;20056;-37
2023/12/30 06:00:42;;;;;;;6.35;1.48;;;16.90;74.70;;;;;;4170809;28;20052;-37
2023/12/30 06:03:23;;;;;;;3.45;1.27;;;16.90;74.70;;;;;;4171674;28;20063;-36
2023/12/30 06:06:04;;;;;;;9.93;1.75;;;17.00;74.80;;;;;;4155907;28;20067;-37
2023/12/30 06:08:46;;;;;;;4.00;1.15;;;17.00;74.80;;;;;;4159882;28;20067;-36
2023/12/30 06:11:28;;;;;;;7.03;1.65;;;16.90;74.40;;;;;;4172374;28;20059;-37
2023/12/30 06:14:09;;;;;;;10.40;2.35;;;17.00;74.20;;;;;;4185164;28;20167;-37
2023/12/30 06:16:50;;;;;;;7.70;1.70;;;16.90;74.40;;;;;;4172446;28;20048;-37
2023/12/30 06:19:33;;;;;;;7.32;1.35;;;16.90;74.20;;;;;;4165807;28;20065;-37
2023/12/30 06:22:14;;;;;;;5.75;1.30;;;16.90;74.20;;;;;;4154860;28;20049;-37
2023/12/30 06:24:55;;;;;;;6.40;1.40;;;16.80;74.50;;;;;;4171379;28;20051;-37
2023/12/30 06:27:37;;;;;;;7.68;1.88;;;16.80;74.60;;;;;;4155522;28;20048;-37
2023/12/30 06:30:18;;;;;;;6.70;1.65;;;16.70;74.90;;;;;;4169420;28;20135;-37
2023/12/30 06:33:06;;;;;;;9.68;1.90;;;16.70;75.30;;;;;;4187934;28;20059;-37
2023/12/30 06:35:47;;;;;;;10.60;2.05;;;16.70;75.10;;;;;;4188665;28;20507;-36
2023/12/30 06:38:28;;;;;;;6.63;2.30;;;16.80;75.20;;;;;;4189089;28;20056;-36
2023/12/30 06:41:09;;;;;;;7.05;1.60;;;16.80;75.00;;;;;;4189112;28;20055;-36
2023/12/30 06:43:52;;;;;;;5.28;1.58;;;16.80;75.70;;;;;;4170681;28;20044;-36
2023/12/30 06:46:33;;;;;;;6.72;2.00;;;16.80;74.70;;;;;;4170182;28;20608;-37
2023/12/30 06:49:15;;;;;;;3.88;1.05;;;16.70;74.50;;;;;;4184830;28;20071;-36
2023/12/30 06:51:56;;;;;;;12.32;2.20;;;16.70;74.10;;;;;;4188362;28;20063;-36
2023/12/30 06:54:37;;;;;;;8.65;2.03;;;16.70;76.00;;;;;;4188764;28;20068;-37
2023/12/30 06:57:19;;;;;;;6.05;1.75;;;16.70;75.60;;;;;;4188435;28;20079;-36
2023/12/30 07:00:01;;;;;;;;;;;16.80;75.30;;;;;;4189277;28;20102;-37
2023/12/30 07:02:41;;;;;;;;;;;16.90;75.20;;;;;;4172710;28;20354;-36
2023/12/30 07:05:22;;;;;;;8.67;2.60;;;16.90;75.20;;;;;;4162892;28;20707;-36
2023/12/30 07:08:04;;;;;;;10.93;2.65;;;17.00;75.00;;;;;;4155692;28;20060;-37
2023/12/30 07:10:45;;;;;;;8.40;2.00;;;17.10;74.50;;;;;;4161414;28;20052;-36
2023/12/30 07:13:26;;;;;;;9.98;1.73;;;17.20;73.80;;;;;;4172598;28;20056;-36
2023/12/30 07:16:09;;;;;;;13.55;2.35;;;17.20;73.70;;;;;;4171870;28;20072;-37
2023/12/30 07:18:50;;;;;;;9.20;2.13;;;17.20;73.70;;;;;;4172724;28;20550;-37
2023/12/30 07:21:31;;;;;;;6.57;1.45;;;17.20;73.90;;;;;;4171433;28;20129;-36
2023/12/30 07:24:12;;;;;;;8.57;1.60;;;17.20;74.00;;;;;;4172119;28;20052;-37
2023/12/30 07:26:53;;;;;;;7.65;1.45;;;17.20;73.70;;;;;;4188746;28;20052;-37
2023/12/30 07:29:34;;;;;;;4.78;1.52;;;17.30;74.20;;;;;;4171761;28;20105;-37
2023/12/30 07:32:17;;;;;;;9.60;1.70;;;17.30;73.40;;;;;;4171829;28;20574;-36
2023/12/30 07:34:58;;;;;;;9.20;2.03;;;17.30;73.40;;;;;;4188188;28;20101;-37
2023/12/30 07:37:39;;;;;;;5.45;1.48;;;17.30;73.20;;;;;;4188301;28;20063;-36
2023/12/30 07:40:21;;;;;;;8.90;1.55;;;17.30;73.10;;;;;;4188567;28;20059;-36
2023/12/30 07:43:01;;;;;;;7.20;1.40;;;17.20;73.00;;;;;;4188142;28;20060;-37
2023/12/30 07:45:42;;;;;;;4.90;1.30;;;17.20;73.40;;;;;;4186983;28;20491;-36
2023/12/30 07:48:25;;;;;;;6.05;1.52;;;17.30;73.40;;;;;;4188431;28;20128;-36
2023/12/30 07:51:06;;;;;;;6.13;1.02;;;17.30;73.40;;;;;;4171748;28;20088;-36
2023/12/30 07:53:47;;;;;;;5.47;1.80;;;17.30;72.50;;;;;;4167779;28;20545;-36
2023/12/30 07:56:28;;;;;;;6.40;1.42;;;17.30;70.00;;;;;;4171066;28;20059;-36
2023/12/30 07:59:10;;;;;;;10.18;1.48;;;17.30;68.50;;;;;;4154539;28;20056;-36
2023/12/30 08:01:51;;;;;;;5.68;1.67;;;17.20;67.40;;;;;;4162995;28;20067;-36
2023/12/30 08:04:34;;;;;;;6.70;1.40;;;17.10;66.80;;;;;;4169325;28;20123;-36
2023/12/30 08:07:16;;;;;;;10.60;1.15;;;17.00;66.50;;;;;;4184652;28;20411;-36
2023/12/30 08:09:57;;;;;;;2.83;0.85;;;17.00;66.40;;;;;;4183147;28;20059;-36
2023/12/30 08:12:38;;;;;;;6.75;1.48;;;17.00;65.90;;;;;;4185143;28;20055;-36
2023/12/30 08:15:20;;;;;;;;;;;16.90;65.10;;;;;;4177288;28;20182;-36
2023/12/30 08:18:00;;;;;;;9.65;1.60;;;16.80;64.70;;;;;;4187106;28;20394;-36
2023/12/30 08:20:43;;;;;;;4.43;0.90;;;16.70;64.10;;;;;;4171282;28;20098;-35
2023/12/30 08:23:24;;;;;;;8.48;1.55;;;16.60;64.30;;;;;;4171043;28;20106;-35
2023/12/30 08:26:05;;;;;;;8.27;1.48;;;16.50;64.30;;;;;;4169120;28;20138;-35
2023/12/30 08:28:46;;;;;;;6.55;0.98;;;16.40;64.30;;;;;;4171114;28;20579;-35
2023/12/30 08:31:28;;;;;;;5.65;1.05;;;16.40;64.30;;;;;;4162892;28;20056;-35
2023/12/30 08:34:09;;;;;;;2.83;0.60;;;16.30;64.50;;;;;;4173268;28;20101;-47
2023/12/30 08:36:51;;;;;;;6.90;0.90;;;16.30;64.70;;;;;;4186270;28;20137;-47
2023/12/30 08:39:32;;;;;;;7.90;1.27;;;16.30;64.40;;;;;;4153766;28;20511;-43
2023/12/30 08:42:13;;;;;;;6.35;1.52;;;16.40;64.20;;;;;;4176523;28;20174;-44
2023/12/30 08:44:54;;;;;;;4.07;1.10;;;16.40;63.90;;;;;;4169182;28;20523;-43
2023/12/30 08:47:36;;;;;;;7.32;1.10;;;16.40;63.60;;;;;;4183226;28;20085;-44
2023/12/30 08:50:17;;;;;;;5.43;1.83;;;16.40;63.40;;;;;;4184565;28;20054;-44
2023/12/30 08:52:59;;;;;;;4.38;1.40;;;16.40;63.10;;;;;;4154430;28;20080;-46
2023/12/30 08:55:40;;;;;;;5.03;1.00;;;16.50;62.90;;;;;;4180043;28;20052;-43
2023/12/30 08:58:23;;;;;;;11.48;1.88;;;16.50;62.70;;;;;;4186607;28;20055;-43
2023/12/30 09:01:05;;;;;;;6.13;1.30;;;16.50;62.60;;;;;;4184566;28;20091;-45
2023/12/30 09:03:47;;;;;;;5.43;1.17;;;16.50;62.50;;;;;;4185334;28;20060;-42
2023/12/30 09:06:30;;;;;;;6.70;1.88;;;16.50;62.40;;;;;;4169159;28;20106;-48
2023/12/30 09:09:13;;;;;;;8.10;1.73;;;16.50;62.40;;;;;;4176694;28;20605;-46
2023/12/30 09:11:54;;;;;;;8.45;1.23;;;16.60;62.10;;;;;;4183887;28;20506;-48
2023/12/30 09:14:35;;;;;;;4.05;1.30;;;16.70;61.50;;;;;;4170367;28;20060;-44
2023/12/30 09:17:16;;;;;;;8.05;2.05;;;16.60;61.20;;;;;;4168378;28;20083;-44
2023/12/30 09:19:58;;;;;;;7.80;1.35;;;16.70;60.70;;;;;;4178513;28;20174;-47
2023/12/30 09:22:39;;;;;;;3.45;1.75;;;16.70;60.40;;;;;;4181130;28;20586;-46
2023/12/30 09:25:21;;;;;;;4.38;1.40;;;16.70;60.50;;;;;;4171703;28;20064;-46
2023/12/30 09:28:02;;;;;;;6.50;1.52;;;16.80;60.30;;;;;;4167751;28;20059;-45
2023/12/30 09:30:43;;;;;;;6.32;1.02;;;17.10;59.80;;;;;;4177164;28;20059;-48
2023/12/30 09:33:24;;;;;;;6.93;1.52;;;17.40;58.90;;;;;;4168756;28;20456;-47
2023/12/30 09:36:06;;;;;;;2.83;0.88;;;17.80;57.80;;;;;;4176322;28;20059;-46
2023/12/30 09:38:47;;;;;;;7.88;1.25;;;18.20;56.50;;;;;;4178109;28;20115;-45
2023/12/30 09:41:31;;;;;;;7.22;1.05;;;18.60;55.40;;;;;;4170965;28;20711;-47
2023/12/30 09:44:14;;;;;;;7.43;1.35;;;18.90;54.30;;;;;;4168715;28;20155;-43
2023/12/30 09:46:56;;;;;;;4.60;1.80;;;19.30;53.30;;;;;;4173823;28;20625;-47
2023/12/30 09:49:37;;;;;;;5.95;1.70;;;19.60;52.40;;;;;;4167624;28;20122;-45
2023/12/30 09:52:19;;;;;;;3.90;1.27;;;19.90;51.50;;;;;;4169014;28;20079;-45
2023/12/30 09:55:00;;;;;;;4.45;1.10;;;20.10;50.90;;;;;;4166964;28;20048;-47
2023/12/30 09:57:43;;;;;;;1.42;0.52;;;20.20;50.30;;;;;;4172175;28;20652;-48
2023/12/30 10:00:28;;;;;;;3.63;1.25;;;20.20;49.90;;;;;;4171798;28;20060;-46
2023/12/30 10:03:10;;;;;;;7.43;1.35;;;20.00;49.90;;;;;;4170487;28;20094;-50
2023/12/30 10:05:52;;;;;;;6.25;1.10;;;19.90;50.20;;;;;;4168327;28;20175;-50
2023/12/30 10:08:33;;;;;;;2.88;1.25;;;19.70;50.70;;;;;;4164769;28;20271;-48
2023/12/30 10:11:14;;;;;;;5.35;1.42;;;19.50;51.00;;;;;;4181992;28;20059;-46
2023/12/30 10:13:56;;;;;;;4.72;1.27;;;19.40;51.50;;;;;;4171910;28;20515;-48
2023/12/30 10:16:37;;;;;;;6.22;1.50;;;19.30;52.20;;;;;;4171634;28;20103;-50
2023/12/30 10:19:18;;;;;;;6.63;1.83;;;19.30;53.40;;;;;;4171630;28;20056;-50
2023/12/30 10:22:00;;;;;;;4.13;0.93;;;19.30;52.50;;;;;;4172790;28;20044;-51
2023/12/30 10:24:41;;;;;;;9.60;1.10;;;19.40;52.30;;;;;;4180346;28;20075;-47
2023/12/30 10:27:22;;;;;;;6.35;1.20;;;19.40;52.00;;;;;;4165889;28;20051;-47
2023/12/30 10:30:05;;;;;;;7.38;1.33;;;19.50;51.90;;;;;;4167725;28;20095;-49
2023/12/30 10:32:47;;;;;;;5.32;1.83;;;19.50;51.80;;;;;;4170385;28;20059;-48
2023/12/30 10:35:28;;;;;;;;;;;19.50;51.80;;;;;;4174793;28;20067;-51
2023/12/30 10:38:09;;;;;;;7.07;1.30;;;19.60;51.80;;;;;;4167016;28;19947;-50
2023/12/30 10:40:50;;;;;;;5.13;1.30;;;19.50;51.70;;;;;;4179837;28;20189;-48
2023/12/30 10:43:34;;;;;;;4.20;1.63;;;19.50;51.50;;;;;;4177533;28;20633;-49
2023/12/30 10:46:19;;;;;;;4.18;1.48;;;19.60;51.40;;;;;;4173041;28;20415;-46
2023/12/30 10:49:03;;;;;;;9.63;1.77;;;19.70;51.50;;;;;;4178413;28;20087;-48
2023/12/30 10:51:46;;;;;;;6.80;1.50;;;19.70;51.70;;;;;;4173637;28;20518;-47
2023/12/30 10:54:33;;;;;;;5.28;1.05;;;19.80;51.50;;;;;;4167398;28;20060;-48
2023/12/30 10:57:18;;;;;;;4.78;1.10;;;19.90;51.30;;;;;;4173385;28;20094;-47
2023/12/30 11:00:04;;;;;;;4.80;1.38;;;19.90;51.00;;;;;;4165895;28;20056;-49
2023/12/30 11:02:47;;;;;;;5.68;1.70;;;19.90;50.70;;;;;;4173271;28;20103;-47
2023/12/30 11:05:32;;;;;;;3.00;0.68;;;20.00;50.30;;;;;;4164379;28;20056;-48
2023/12/30 11:08:13;;;;;;;1.58;1.38;;;20.00;50.20;;;;;;4171409;28;20515;-50
2023/12/30 11:10:56;;;;;;;;;;;20.00;49.90;;;;;;4181975;28;20392;-48
2023/12/30 11:13:38;;;;;;;4.07;1.02;;;19.90;50.30;;;;;;4182619;28;20106;-47
2023/12/30 11:16:20;;;;;;;3.10;1.48;;;19.80;50.20;;;;;;4165455;28;20056;-50
2023/12/30 11:19:04;;;;;;;4.30;1.60;;;19.80;50.10;;;;;;4171344;28;20059;-48
2023/12/30 11:21:46;;;;;;;7.63;3.78;;;19.70;50.30;;;;;;4166910;28;20072;-50
2023/12/30 11:24:29;;;;;;;3.85;1.67;;;19.70;50.60;;;;;;4169674;28;20510;-51
2023/12/30 11:27:11;;;;;;;4.03;1.58;;;19.60;50.60;;;;;;4168736;28;20059;-53
2023/12/30 11:29:54;;;;;;;6.28;1.63;;;19.60;50.60;;;;;;4168263;28;20056;-49
2023/12/30 11:32:35;;;;;;;7.15;1.52;;;19.50;50.80;;;;;;4171157;28;20102;-52
2023/12/30 11:35:18;;;;;;;7.32;1.80;;;19.40;50.90;;;;;;4180428;28;20071;-49
2023/12/30 11:38:02;;;;;;;3.95;1.48;;;19.30;51.00;;;;;;4168545;28;20175;-48
2023/12/30 11:40:50;;;;;;;3.47;1.10;;;19.30;50.90;;;;;;4177684;28;20051;-51
2023/12/30 11:43:31;;;;;;;3.92;1.00;;;19.30;51.10;;;;;;4168118;28;20064;-49
2023/12/30 11:46:13;;;;;;;2.90;1.30;;;19.30;51.10;;;;;;4173243;28;20102;-49
2023/12/30 11:48:56;;;;;;;6.43;1.40;;;19.30;51.00;;;;;;4177060;28;20071;-53
2023/12/30 11:51:39;;;;;;;1.65;1.13;;;19.30;51.10;;;;;;4174300;28;20091;-51
2023/12/30 11:54:19;;;;;;;2.75;1.08;;;19.40;51.80;;;;;;4167106;28;20063;-48
2023/12/30 11:57:00;;;;;;;5.32;1.30;;;19.30;51.70;;;;;;4170217;28;20074;-51
2023/12/30 11:59:42;;;;;;;3.33;1.50;;;19.30;51.60;;;;;;4166064;28;20052;-37
2023/12/30 12:02:25;;;;;;;7.50;1.55;;;19.30;51.30;;;;;;4176998;28;20163;-49
2023/12/30 12:05:07;;;;;;;5.10;1.15;;;19.20;51.50;;;;;;4184989;28;20067;-49
2023/12/30 12:07:49;;;;;;;4.82;1.48;;;19.20;51.70;;;;;;4185114;28;20877;-51
2023/12/30 12:10:31;;;;;;;2.40;1.30;;;19.20;51.70;;;;;;4170778;28;20048;-50
2023/12/30 12:13:20;;;;;;;6.90;1.70;;;19.20;51.70;;;;;;4184578;28;20733;-47
2023/12/30 12:16:04;;;;;;;5.53;1.40;;;19.20;52.60;;;;;;4183593;28;20097;-37
2023/12/30 12:18:45;;;;;;;4.35;1.80;;;19.30;52.10;;;;;;4167686;28;20086;-37
2023/12/30 12:21:26;;;;;;;9.82;2.45;;;19.30;52.00;;;;;;4170629;28;20059;-38
2023/12/30 12:24:08;;;;;;;;;;;19.30;51.90;;;;;;4177309;28;20442;-38
2023/12/30 12:26:49;;;;;;;7.40;3.40;;;19.40;51.90;;;;;;4171152;28;19928;-37
2023/12/30 12:29:30;;;;;;;7.55;2.53;;;19.40;52.30;;;;;;4176088;28;20047;-38
2023/12/30 12:32:13;;;;;;;4.90;2.47;;;19.40;51.90;;;;;;4167759;28;20178;-38
2023/12/30 12:34:54;;;;;;;6.68;2.75;;;19.30;51.90;;;;;;4168177;28;20087;-37
2023/12/30 12:37:37;;;;;;;5.65;3.08;;;19.30;52.90;;;;;;4184434;28;20060;-38
2023/12/30 12:40:19;;;;;;;5.82;1.92;;;19.20;52.40;;;;;;4169149;28;20121;-37
2023/12/30 12:43:00;;;;;;;8.55;3.90;;;19.10;52.50;;;;;;4167600;28;20052;-37
2023/12/30 12:45:41;;;;;;;8.52;3.55;;;19.00;53.10;;;;;;4170627;28;20064;-37
2023/12/30 12:48:22;;;;;;;6.55;3.25;;;19.10;52.80;;;;;;4166654;28;20059;-38
2023/12/30 12:51:04;;;;;;;8.10;3.97;;;19.00;52.70;;;;;;4183825;28;20591;-37
2023/12/30 12:53:45;;;;;;;8.55;2.63;;;19.10;52.80;;;;;;4167750;28;20059;-37
2023/12/30 12:56:27;;;;;;;9.13;4.10;;;19.10;52.80;;;;;;4179326;28;20095;-37
2023/12/30 12:59:08;;;;;;;9.10;4.53;;;19.10;52.80;;;;;;4176267;28;20559;-37
2023/12/30 13:01:49;;;;;;;9.43;3.67;;;19.10;52.80;;;;;;4180777;28;20094;-38
2023/12/30 13:04:30;;;;;;;6.60;2.95;;;19.10;53.00;;;;;;4182312;28;20567;-37
2023/12/30 13:07:12;;;;;;;6.35;2.72;;;19.20;52.80;;;;;;4168902;28;20048;-37
2023/12/30 13:09:56;;;;;;;9.65;3.10;;;19.20;52.70;;;;;;4177911;28;20059;-36
2023/12/30 13:12:39;;;;;;;7.90;2.92;;;19.20;53.30;;;;;;4179790;28;20055;-36
2023/12/30 13:15:24;;;;;;;7.60;2.10;;;19.20;53.20;;;;;;4181169;28;20060;-35
2023/12/30 13:18:11;;;;;;;6.03;1.88;;;19.20;53.00;;;;;;4170591;28;20060;-37
2023/12/30 13:20:52;;;;;;;7.93;2.40;;;19.30;52.60;;;;;;4166386;28;20064;-38
2023/12/30 13:23:33;;;;;;;4.00;2.17;;;19.50;52.40;;;;;;4175556;28;20059;-36
2023/12/30 13:26:14;;;;;;;13.60;2.47;;;19.60;52.40;;;;;;4183722;28;20095;-36
2023/12/30 13:28:57;;;;;;;5.40;2.70;;;19.60;52.10;;;;;;4170455;28;20110;-36
2023/12/30 13:31:38;;;;;;;6.65;2.60;;;19.60;52.10;;;;;;4181622;28;20105;-36
2023/12/30 13:34:19;;;;;;;5.22;2.55;;;19.50;52.80;;;;;;4173401;28;20052;-36
2023/12/30 13:37:05;;;;;;;9.13;2.08;;;19.40;53.90;;;;;;4168731;28;20068;-36
2023/12/30 13:39:46;;;;;;;10.38;2.42;;;19.40;53.90;;;;;;4167695;28;20059;-36
2023/12/30 13:42:27;;;;;;;6.53;3.10;;;19.30;53.80;;;;;;4169212;28;20496;-36
2023/12/30 13:45:10;;;;;;;4.90;2.15;;;19.40;53.70;;;;;;4175826;28;20184;-36
2023/12/30 13:50:51;;;;;;;3.65;1.92;;;19.30;53.30;;;;;;4180152;28;20098;-36
2023/12/30 13:53:34;;;;;;;10.48;3.20;;;19.30;53.40;;;;;;4169162;28;20098;-36
2023/12/30 13:56:18;;;;;;;8.00;2.33;;;19.20;53.30;;;;;;4187024;28;20097;-36
2023/12/30 13:59:01;;;;;;;6.28;1.90;;;19.10;53.60;;;;;;4170402;28;20140;-36
2023/12/30 14:01:43;;;;;;;6.90;2.00;;;19.00;54.10;;;;;;4172056;28;20052;-36
2023/12/30 14:04:25;;;;;;;7.22;2.22;;;19.00;54.10;;;;;;4186817;28;20121;-36
2023/12/30 14:07:11;;;;;;;5.18;1.88;;;18.90;54.20;;;;;;4186471;28;20064;-35